Time;durP1;ratioP1;P1;durP2;ratioP2;P2;SDS_P1;SDS_P2;PMS_P1;PMS_P2;Temp;Humidity;BMP_temperature;BMP_pressure;BME280_temperature;BME280_humidity;BME280_pressure;Samples;Min_cycle;Max_cycle;Signal;HPM_P1;HPM_P2
2023/07/20 00:02:20;;;;;;;0.22;0.22;;;14.10;99.90;;;;;;5015876;28;20121;-71
2023/07/20 00:04:46;;;;;;;0.47;0.40;;;14.00;99.90;;;;;;5015526;28;20052;-73
2023/07/20 00:07:11;;;;;;;0.00;0.00;;;14.00;99.90;;;;;;5015588;28;20429;-71
2023/07/20 00:09:37;;;;;;;0.00;0.00;;;14.00;99.90;;;;;;5015556;28;20038;-71
2023/07/20 00:12:03;;;;;;;0.00;0.00;;;13.90;99.90;;;;;;5015524;28;20053;-71
2023/07/20 00:14:29;;;;;;;0.00;0.00;;;13.90;99.90;;;;;;5015463;28;20543;-71
2023/07/20 00:16:55;;;;;;;0.00;0.00;;;14.60;99.90;;;;;;5015581;28;20125;-71
2023/07/20 00:19:25;;;;;;;0.00;0.00;;;13.90;99.90;;;;;;5015579;28;20042;-71
2023/07/20 00:21:51;;;;;;;0.10;0.10;;;13.90;99.90;;;;;;5015495;28;20050;-70
2023/07/20 00:24:16;;;;;;;0.00;0.00;;;13.90;99.90;;;;;;5013580;28;20075;-71
2023/07/20 00:26:42;;;;;;;0.00;0.00;;;13.80;99.90;;;;;;5010529;28;20109;-71
2023/07/20 00:29:08;;;;;;;0.00;0.00;;;13.80;99.90;;;;;;5015063;28;20137;-71
2023/07/20 00:31:34;;;;;;;0.00;0.00;;;13.80;99.90;;;;;;5015400;28;20045;-71
2023/07/20 00:34:00;;;;;;;0.60;0.28;;;13.80;99.90;;;;;;5014987;28;20121;-71
2023/07/20 00:36:26;;;;;;;0.00;0.00;;;13.70;99.90;;;;;;5014800;28;20137;-71
2023/07/20 00:38:51;;;;;;;0.00;0.00;;;13.70;99.90;;;;;;5014892;28;20580;-71
2023/07/20 00:41:17;;;;;;;0.00;0.00;;;13.80;99.90;;;;;;5015329;28;20060;-71
2023/07/20 00:43:43;;;;;;;0.00;0.00;;;13.70;99.90;;;;;;5014549;28;20401;-71
2023/07/20 00:46:09;;;;;;;0.00;0.00;;;13.70;99.90;;;;;;5013432;28;20037;-71
2023/07/20 00:48:36;;;;;;;0.00;0.00;;;13.60;99.90;;;;;;5015292;28;20457;-71
2023/07/20 00:51:02;;;;;;;0.00;0.00;;;13.70;99.90;;;;;;5014937;28;20077;-71
2023/07/20 00:53:28;;;;;;;0.00;0.00;;;13.60;99.90;;;;;;5014331;28;20049;-71
2023/07/20 00:55:53;;;;;;;0.00;0.00;;;13.60;99.90;;;;;;5002729;28;20491;-71
2023/07/20 00:58:19;;;;;;;0.00;0.00;;;13.60;99.90;;;;;;5014466;28;20042;-71
2023/07/20 01:00:46;;;;;;;0.00;0.00;;;13.60;99.90;;;;;;5014494;28;20177;-71
2023/07/20 01:03:12;;;;;;;0.00;0.00;;;13.50;99.90;;;;;;5014636;28;20488;-71
2023/07/20 01:05:48;;;;;;;0.05;0.05;;;13.40;99.90;;;;;;5013388;28;20076;-71
2023/07/20 01:08:46;;;;;;;;;;;13.40;99.90;;;;;;5014224;28;20052;-71
2023/07/20 01:11:16;;;;;;;;;;;13.30;99.90;;;;;;4992267;28;20012;-71
2023/07/20 01:13:43;;;;;;;0.00;0.00;;;13.20;99.90;;;;;;5014248;28;20373;-71
2023/07/20 01:16:09;;;;;;;0.00;0.00;;;12.90;99.90;;;;;;5014119;28;20080;-71
2023/07/20 01:18:34;;;;;;;0.00;0.00;;;12.80;99.90;;;;;;5014299;28;20069;-71
2023/07/20 01:21:07;;;;;;;0.00;0.00;;;12.80;99.90;;;;;;5014251;28;20073;-71
2023/07/20 01:23:58;;;;;;;0.00;0.00;;;12.70;99.90;;;;;;4994872;28;20046;-71
2023/07/20 01:26:52;;;;;;;0.00;0.00;;;12.50;99.90;;;;;;5014162;28;20038;-71
2023/07/20 01:29:25;;;;;;;0.20;0.10;;;12.30;99.90;;;;;;5013960;28;20052;-71
2023/07/20 01:31:54;;;;;;;0.13;0.13;;;12.20;99.90;;;;;;5014436;28;20104;-71
2023/07/20 01:34:22;;;;;;;0.00;0.00;;;12.10;99.90;;;;;;5013190;28;20042;-71
2023/07/20 01:36:49;;;;;;;0.20;0.13;;;12.10;99.90;;;;;;5006603;28;20112;-71
2023/07/20 01:39:16;;;;;;;0.17;0.13;;;12.00;99.90;;;;;;5013162;28;20099;-71
2023/07/20 01:41:42;;;;;;;0.00;0.00;;;11.90;99.90;;;;;;5013616;28;20456;-71
2023/07/20 01:44:08;;;;;;;0.28;0.13;;;11.90;99.90;;;;;;5013190;28;20544;-71
2023/07/20 01:46:34;;;;;;;0.00;0.00;;;11.80;99.90;;;;;;5014138;28;20109;-71
2023/07/20 01:48:59;;;;;;;0.25;0.17;;;11.80;99.90;;;;;;5013999;28;20072;-71
2023/07/20 01:51:25;;;;;;;0.00;0.00;;;11.70;99.90;;;;;;5014084;28;20100;-71
2023/07/20 01:53:50;;;;;;;0.00;0.00;;;11.60;99.90;;;;;;5013368;28;20034;-74
2023/07/20 01:56:16;;;;;;;0.00;0.00;;;11.60;99.90;;;;;;5005111;28;20092;-71
2023/07/20 01:58:42;;;;;;;0.00;0.00;;;11.50;99.90;;;;;;5011661;28;20038;-71
2023/07/20 02:01:07;;;;;;;0.00;0.00;;;11.50;99.90;;;;;;5013648;28;20029;-71
2023/07/20 02:03:33;;;;;;;0.10;0.10;;;11.50;99.90;;;;;;5013618;28;20531;-73
2023/07/20 02:05:58;;;;;;;0.03;0.03;;;11.40;99.90;;;;;;5013214;28;20038;-71
2023/07/20 02:08:24;;;;;;;0.00;0.00;;;11.30;99.90;;;;;;5013245;28;20103;-71
2023/07/20 02:10:51;;;;;;;0.35;0.35;;;11.30;99.90;;;;;;5013544;28;20042;-71
2023/07/20 02:13:17;;;;;;;0.38;0.25;;;11.30;99.90;;;;;;5013246;28;20044;-71
2023/07/20 02:15:43;;;;;;;0.95;0.45;;;11.20;99.90;;;;;;5013281;28;20034;-71
2023/07/20 02:18:09;;;;;;;0.47;0.32;;;11.20;99.90;;;;;;5013358;28;20092;-71
2023/07/20 02:20:35;;;;;;;0.00;0.00;;;11.20;99.90;;;;;;5013577;28;20037;-71
2023/07/20 02:23:01;;;;;;;0.70;0.70;;;11.10;99.90;;;;;;5013281;28;20121;-73
2023/07/20 02:25:27;;;;;;;0.00;0.00;;;11.10;99.90;;;;;;5012539;28;20137;-70
2023/07/20 02:27:52;;;;;;;0.00;0.00;;;11.10;99.90;;;;;;5007161;28;20034;-71
2023/07/20 02:30:18;;;;;;;0.00;0.00;;;11.00;99.90;;;;;;5011275;28;20038;-71
2023/07/20 02:32:48;;;;;;;1.42;0.52;;;11.00;99.90;;;;;;5013321;28;20421;-71
2023/07/20 02:35:14;;;;;;;1.35;0.80;;;11.00;99.90;;;;;;5012947;28;20412;-71
2023/07/20 02:37:40;;;;;;;0.05;0.05;;;10.90;99.90;;;;;;5013099;28;20369;-71
2023/07/20 02:40:07;;;;;;;0.00;0.00;;;10.90;99.90;;;;;;5012800;28;20196;-71
2023/07/20 02:42:33;;;;;;;0.40;0.40;;;10.90;99.90;;;;;;5013053;28;20107;-71
2023/07/20 02:44:58;;;;;;;0.00;0.00;;;10.80;99.90;;;;;;5004486;28;20176;-71
2023/07/20 02:47:24;;;;;;;0.20;0.17;;;10.80;99.90;;;;;;5013155;28;20045;-73
2023/07/20 02:49:50;;;;;;;0.30;0.30;;;10.80;99.90;;;;;;5013595;28;20069;-73
2023/07/20 02:52:15;;;;;;;0.25;0.22;;;10.70;99.90;;;;;;5017161;28;20034;-73
2023/07/20 02:54:41;;;;;;;0.05;0.05;;;10.70;99.90;;;;;;5008510;28;20166;-73
2023/07/20 02:57:06;;;;;;;0.05;0.05;;;10.60;99.90;;;;;;5016930;28;20489;-73
2023/07/20 02:59:32;;;;;;;1.17;0.45;;;10.60;99.90;;;;;;5016598;28;20042;-73
2023/07/20 03:01:58;;;;;;;0.00;0.00;;;10.50;99.90;;;;;;5016761;28;20042;-73
2023/07/20 03:04:26;;;;;;;1.75;0.90;;;10.50;99.90;;;;;;5017019;28;20108;-73
2023/07/20 03:06:52;;;;;;;0.25;0.25;;;10.50;99.90;;;;;;5016646;28;20408;-73
2023/07/20 03:09:18;;;;;;;0.28;0.17;;;10.40;99.90;;;;;;5016493;28;20037;-73
2023/07/20 03:11:43;;;;;;;0.00;0.00;;;10.40;99.90;;;;;;5016842;28;20045;-73
2023/07/20 03:14:10;;;;;;;1.25;0.32;;;10.30;99.90;;;;;;5016421;28;20046;-73
2023/07/20 03:16:36;;;;;;;0.00;0.00;;;10.30;99.90;;;;;;5010927;28;20140;-73
2023/07/20 03:19:02;;;;;;;0.00;0.00;;;10.30;99.90;;;;;;5013521;28;20449;-73
2023/07/20 03:21:28;;;;;;;0.00;0.00;;;10.30;99.90;;;;;;5008867;28;20405;-73
2023/07/20 03:23:54;;;;;;;0.00;0.00;;;10.30;99.90;;;;;;5016479;28;20050;-73
2023/07/20 03:26:20;;;;;;;0.20;0.20;;;10.30;99.90;;;;;;5007630;28;20049;-73
2023/07/20 03:28:45;;;;;;;0.25;0.25;;;10.30;99.90;;;;;;5016347;28;20034;-73
2023/07/20 03:31:11;;;;;;;0.20;0.20;;;10.30;99.90;;;;;;5016470;28;20044;-73
2023/07/20 03:33:37;;;;;;;0.32;0.32;;;10.20;99.90;;;;;;5016202;28;20113;-73
2023/07/20 03:36:02;;;;;;;0.20;0.20;;;11.60;99.90;;;;;;5010193;28;20046;-72
2023/07/20 03:38:28;;;;;;;0.00;0.00;;;10.20;99.90;;;;;;5004841;28;20113;-73
2023/07/20 03:40:56;;;;;;;0.10;0.00;;;10.20;99.90;;;;;;5015424;28;20433;-73
2023/07/20 03:43:22;;;;;;;0.52;0.25;;;10.10;99.90;;;;;;5015657;28;20034;-73
2023/07/20 03:45:48;;;;;;;0.80;0.57;;;10.10;99.90;;;;;;5015111;28;20050;-73
2023/07/20 03:48:16;;;;;;;0.00;0.00;;;10.10;99.90;;;;;;5007461;28;20557;-73
2023/07/20 03:50:45;;;;;;;0.00;0.00;;;10.10;99.90;;;;;;5015458;28;20050;-73
2023/07/20 03:53:11;;;;;;;0.45;0.45;;;10.20;99.90;;;;;;5015266;28;20037;-73
2023/07/20 03:55:37;;;;;;;0.30;0.30;;;10.20;99.90;;;;;;5014929;28;20030;-73
2023/07/20 03:58:03;;;;;;;0.32;0.10;;;10.40;99.90;;;;;;5015390;28;20413;-73
2023/07/20 04:00:29;;;;;;;0.08;0.05;;;10.20;99.90;;;;;;5014993;28;20229;-73
2023/07/20 04:02:54;;;;;;;0.10;0.10;;;10.20;99.90;;;;;;5014084;28;20448;-73
2023/07/20 04:05:20;;;;;;;0.50;0.28;;;10.20;99.90;;;;;;5014905;28;20069;-73
2023/07/20 04:07:46;;;;;;;0.43;0.32;;;10.20;99.90;;;;;;5014852;28;20034;-73
2023/07/20 04:10:12;;;;;;;0.00;0.00;;;10.20;99.90;;;;;;5014936;28;20108;-73
2023/07/20 04:12:38;;;;;;;0.05;0.03;;;10.20;99.90;;;;;;5015305;28;20081;-73
2023/07/20 04:15:04;;;;;;;0.03;0.03;;;10.10;99.90;;;;;;5007098;28;20068;-71
2023/07/20 04:17:29;;;;;;;0.00;0.00;;;10.10;99.90;;;;;;5014588;28;20030;-71
2023/07/20 04:19:55;;;;;;;0.20;0.20;;;10.20;99.90;;;;;;5012247;28;20046;-71
2023/07/20 04:22:21;;;;;;;0.73;0.35;;;10.30;99.90;;;;;;5012719;28;20045;-71
2023/07/20 04:24:47;;;;;;;0.00;0.00;;;10.50;99.90;;;;;;5010593;28;20041;-71
2023/07/20 04:27:12;;;;;;;0.73;0.63;;;10.30;99.90;;;;;;5012050;28;20034;-71
2023/07/20 04:29:38;;;;;;;0.00;0.00;;;10.30;99.90;;;;;;5012862;28;20049;-71
2023/07/20 04:32:04;;;;;;;0.05;0.03;;;10.30;99.90;;;;;;5010472;28;20038;-71
2023/07/20 04:34:29;;;;;;;0.47;0.43;;;10.30;99.90;;;;;;5008678;28;20084;-71
2023/07/20 04:36:55;;;;;;;0.47;0.45;;;10.40;99.90;;;;;;5013984;28;20042;-71
2023/07/20 04:39:21;;;;;;;0.10;0.10;;;10.50;99.90;;;;;;5011524;28;20096;-71
2023/07/20 04:41:46;;;;;;;0.20;0.15;;;10.50;99.90;;;;;;5009662;28;20093;-71
2023/07/20 04:44:13;;;;;;;0.00;0.00;;;10.70;99.90;;;;;;5007772;28;20504;-71
2023/07/20 04:46:40;;;;;;;0.25;0.25;;;10.90;99.90;;;;;;5009463;28;20041;-71
2023/07/20 04:49:06;;;;;;;0.00;0.00;;;11.10;99.90;;;;;;5008764;28;20046;-71
2023/07/20 04:51:31;;;;;;;0.10;0.00;;;11.20;99.90;;;;;;5008105;28;20060;-71
2023/07/20 04:53:57;;;;;;;0.00;0.00;;;11.10;99.90;;;;;;5012725;28;20037;-71
2023/07/20 04:56:24;;;;;;;0.00;0.00;;;11.10;99.90;;;;;;5013933;28;20393;-71
2023/07/20 04:58:50;;;;;;;0.95;0.30;;;11.40;99.90;;;;;;5013804;28;20046;-71
2023/07/20 05:01:16;;;;;;;0.00;0.00;;;11.90;99.90;;;;;;5011143;28;20591;-71
2023/07/20 05:03:42;;;;;;;0.10;0.10;;;12.10;99.90;;;;;;5007735;28;21323;-71
2023/07/20 05:06:07;;;;;;;0.00;0.00;;;12.10;99.90;;;;;;5008397;28;20038;-71
2023/07/20 05:08:33;;;;;;;0.00;0.00;;;12.30;99.90;;;;;;5009645;28;20125;-71
2023/07/20 05:10:59;;;;;;;0.00;0.00;;;12.70;99.90;;;;;;5009134;28;20037;-71
2023/07/20 05:13:25;;;;;;;0.10;0.10;;;12.70;99.90;;;;;;5009421;28;20489;-71
2023/07/20 05:15:52;;;;;;;0.00;0.00;;;13.20;99.90;;;;;;5009965;28;20038;-71
2023/07/20 05:18:19;;;;;;;0.13;0.13;;;14.30;99.90;;;;;;5002218;28;20062;-71
2023/07/20 05:20:47;;;;;;;0.00;0.00;;;15.00;99.90;;;;;;5010427;28;20101;-71
2023/07/20 05:23:12;;;;;;;0.13;0.10;;;15.90;99.90;;;;;;5010086;28;20103;-71
2023/07/20 05:25:38;;;;;;;0.00;0.00;;;16.90;99.90;;;;;;5004887;28;20117;-72
2023/07/20 05:28:04;;;;;;;0.08;0.08;;;17.60;1.00;;;;;;5013504;28;20523;-72
2023/07/20 05:30:29;;;;;;;0.00;0.00;;;17.10;82.40;;;;;;5013453;28;20046;-72
2023/07/20 05:32:55;;;;;;;0.00;0.00;;;16.60;99.90;;;;;;5012216;28;20475;-72
2023/07/20 05:35:21;;;;;;;0.10;0.10;;;16.50;1.00;;;;;;5013040;28;20048;-72
2023/07/20 05:37:46;;;;;;;0.00;0.00;;;17.10;1.00;;;;;;5013429;28;20042;-72
2023/07/20 05:40:14;;;;;;;0.20;0.20;;;17.40;99.90;;;;;;5012999;28;20046;-72
2023/07/20 05:42:40;;;;;;;0.22;0.20;;;17.20;99.90;;;;;;5013103;28;20053;-72
2023/07/20 05:45:07;;;;;;;0.00;0.00;;;17.50;99.90;;;;;;5013566;28;20042;-72
2023/07/20 05:47:32;;;;;;;0.10;0.10;;;18.40;1.00;;;;;;5013088;28;20052;-72
2023/07/20 05:49:58;;;;;;;0.00;0.00;;;19.50;99.90;;;;;;5012945;28;20127;-72
2023/07/20 05:52:23;;;;;;;5.00;0.10;;;20.40;99.90;;;;;;5013212;28;20034;-72
2023/07/20 05:54:49;;;;;;;0.17;0.10;;;19.90;99.90;;;;;;5012951;28;20053;-72
2023/07/20 05:57:15;;;;;;;0.00;0.00;;;19.40;1.00;;;;;;5013063;28;20477;-72
2023/07/20 05:59:43;;;;;;;0.00;0.00;;;19.00;99.90;;;;;;5012933;28;20038;-72
2023/07/20 06:02:10;;;;;;;0.10;0.10;;;19.60;99.90;;;;;;5004982;28;20411;-72
2023/07/20 06:04:35;;;;;;;0.00;0.00;;;20.10;99.90;;;;;;5012757;28;20050;-72
2023/07/20 06:07:01;;;;;;;0.00;0.00;;;20.80;99.90;;;;;;5013022;28;20045;-72
2023/07/20 06:09:27;;;;;;;0.10;0.00;;;21.50;99.90;;;;;;5012621;28;20083;-72
2023/07/20 06:11:53;;;;;;;0.00;0.00;;;22.10;99.90;;;;;;5012841;28;20041;-72
2023/07/20 06:14:19;;;;;;;0.00;0.00;;;22.30;99.90;;;;;;5000975;28;20510;-71
2023/07/20 06:16:44;;;;;;;0.20;0.20;;;22.50;99.90;;;;;;5012732;28;20038;-72
2023/07/20 06:19:13;;;;;;;0.10;0.10;;;22.80;17.70;;;;;;5012460;28;20124;-72
2023/07/20 06:21:39;;;;;;;0.00;0.00;;;22.80;1.00;;;;;;5012519;28;20179;-72
2023/07/20 06:24:05;;;;;;;0.05;0.05;;;22.80;1.00;;;;;;5009245;28;20073;-72
2023/07/20 06:26:32;;;;;;;0.00;0.00;;;23.30;58.80;;;;;;5008583;28;20057;-72
2023/07/20 06:28:58;;;;;;;0.40;0.17;;;23.70;92.60;;;;;;5010348;28;20488;-72
2023/07/20 06:31:23;;;;;;;7.65;1.17;;;23.00;1.00;;;;;;5008314;28;20089;-72
2023/07/20 06:33:49;;;;;;;0.00;0.00;;;23.50;1.00;;;;;;5008930;28;20038;-72
2023/07/20 06:36:18;;;;;;;0.00;0.00;;;23.50;99.90;;;;;;5012624;28;20587;-72
2023/07/20 06:38:43;;;;;;;0.10;0.10;;;23.90;1.00;;;;;;5004309;28;20076;-72
2023/07/20 06:41:09;;;;;;;0.00;0.00;;;23.80;99.90;;;;;;5009475;28;20450;-72
2023/07/20 06:43:35;;;;;;;0.60;0.55;;;23.90;1.00;;;;;;5008960;28;20054;-72
2023/07/20 06:46:01;;;;;;;0.00;0.00;;;24.50;1.00;;;;;;5012358;28;20054;-72
2023/07/20 06:48:26;;;;;;;0.00;0.00;;;24.20;99.90;;;;;;5012323;28;20083;-72
2023/07/20 06:50:52;;;;;;;0.00;0.00;;;24.60;99.90;;;;;;5012450;28;20037;-72
2023/07/20 06:53:17;;;;;;;0.00;0.00;;;24.80;1.00;;;;;;5012327;28;20421;-72
2023/07/20 06:55:43;;;;;;;2.10;0.50;;;25.30;99.90;;;;;;5012136;28;20070;-72
2023/07/20 06:58:10;;;;;;;0.10;0.10;;;25.50;99.90;;;;;;5012265;28;20469;-72
2023/07/20 07:00:35;;;;;;;0.00;0.00;;;25.60;99.90;;;;;;5012015;28;20468;-72
2023/07/20 07:03:02;;;;;;;0.00;0.00;;;26.00;99.90;;;;;;5007306;28;20070;-72
2023/07/20 07:05:28;;;;;;;0.17;0.17;;;25.80;99.90;;;;;;5010838;28;20038;-72
2023/07/20 07:07:53;;;;;;;0.20;0.17;;;26.20;99.90;;;;;;5012160;28;20068;-72
2023/07/20 07:10:19;;;;;;;0.00;0.00;;;26.50;99.90;;;;;;5011928;28;20034;-72
2023/07/20 07:12:45;;;;;;;0.30;0.30;;;26.70;99.90;;;;;;5012229;28;20046;-71
2023/07/20 07:15:10;;;;;;;1.55;0.57;;;25.10;81.60;;;;;;5011516;28;20038;-72
2023/07/20 07:17:36;;;;;;;0.15;0.10;;;25.40;59.70;;;;;;5012089;28;20099;-72
2023/07/20 07:20:03;;;;;;;0.03;0.03;;;24.80;31.80;;;;;;5012265;28;20034;-72
2023/07/20 07:22:29;;;;;;;0.00;0.00;;;25.90;99.90;;;;;;5012254;28;20046;-71
2023/07/20 07:24:55;;;;;;;0.00;0.00;;;25.50;2.60;;;;;;5012040;28;20042;-71
2023/07/20 07:27:20;;;;;;;0.10;0.10;;;25.50;1.00;;;;;;5011794;28;20608;-71
2023/07/20 07:29:46;;;;;;;0.00;0.00;;;26.00;29.00;;;;;;5011931;28;20042;-72
2023/07/20 07:32:12;;;;;;;0.00;0.00;;;25.60;1.00;;;;;;5003161;28;20401;-71
2023/07/20 07:34:38;;;;;;;0.00;0.00;;;24.60;1.00;;;;;;5003920;28;20034;-72
2023/07/20 07:37:07;;;;;;;0.10;0.10;;;25.60;9.30;;;;;;5012883;28;20037;-72
2023/07/20 07:39:33;;;;;;;0.10;0.10;;;25.90;14.80;;;;;;5015149;28;20065;-72
2023/07/20 07:41:58;;;;;;;0.00;0.00;;;26.00;3.20;;;;;;5015379;28;20578;-72
2023/07/20 07:44:24;;;;;;;0.00;0.00;;;26.00;1.00;;;;;;5015188;28;20437;-71
2023/07/20 07:46:50;;;;;;;0.00;0.00;;;25.60;1.00;;;;;;5007379;28;20050;-72
2023/07/20 07:49:16;;;;;;;0.70;0.43;;;25.80;1.00;;;;;;5015395;28;20061;-71
2023/07/20 07:51:42;;;;;;;0.00;0.00;;;25.00;1.00;;;;;;5015350;28;20045;-71
2023/07/20 07:54:08;;;;;;;0.20;0.17;;;24.40;1.00;;;;;;5014565;28;20056;-71
2023/07/20 07:56:33;;;;;;;0.05;0.05;;;23.60;1.00;;;;;;5011981;28;20042;-71
2023/07/20 07:58:59;;;;;;;0.10;0.10;;;22.60;99.90;;;;;;5009628;28;20049;-72
2023/07/20 08:01:25;;;;;;;0.30;0.30;;;21.00;99.90;;;;;;5011340;28;20392;-71
2023/07/20 08:03:51;;;;;;;4.63;0.47;;;21.10;99.90;;;;;;5011178;28;20396;-72
2023/07/20 08:06:16;;;;;;;0.30;0.30;;;22.70;1.00;;;;;;5010964;28;20038;-71
2023/07/20 08:08:42;;;;;;;0.17;0.10;;;24.10;1.00;;;;;;5010742;28;20045;-72
2023/07/20 08:11:08;;;;;;;4.68;0.68;;;25.50;1.00;;;;;;5009725;28;20552;-72
2023/07/20 08:13:35;;;;;;;0.00;0.00;;;26.10;1.00;;;;;;5004856;28;20048;-72
2023/07/20 08:16:02;;;;;;;0.00;0.00;;;25.70;1.00;;;;;;5005450;28;20069;-72
2023/07/20 08:18:27;;;;;;;0.00;0.00;;;24.60;99.90;;;;;;5010617;28;20045;-72
2023/07/20 08:20:53;;;;;;;0.30;0.17;;;25.20;1.00;;;;;;5009006;28;20123;-72
2023/07/20 08:23:20;;;;;;;0.00;0.00;;;26.30;1.00;;;;;;5010459;28;20078;-72
2023/07/20 08:25:45;;;;;;;0.22;0.20;;;27.40;1.00;;;;;;5010397;28;20514;-71
2023/07/20 08:28:15;;;;;;;0.15;0.10;;;26.40;99.90;;;;;;5010394;28;20057;-72
2023/07/20 08:30:48;;;;;;;0.00;0.00;;;25.30;99.90;;;;;;5009417;28;20050;-71
2023/07/20 08:33:16;;;;;;;0.00;0.00;;;25.30;99.90;;;;;;5010214;28;20138;-71
2023/07/20 08:35:43;;;;;;;0.77;0.65;;;25.70;99.90;;;;;;5010636;28;20112;-72
2023/07/20 08:38:09;;;;;;;0.08;0.00;;;26.40;99.90;;;;;;5010240;28;20038;-72
2023/07/20 08:40:40;;;;;;;0.00;0.00;;;27.30;99.90;;;;;;5010117;28;20081;-72
2023/07/20 08:43:05;;;;;;;0.00;0.00;;;27.70;99.90;;;;;;5010100;28;20041;-72
2023/07/20 08:45:33;;;;;;;0.10;0.10;;;28.60;99.90;;;;;;5009726;28;20088;-72
2023/07/20 08:48:04;;;;;;;0.00;0.00;;;27.80;99.90;;;;;;5009524;28;20547;-72
2023/07/20 08:50:31;;;;;;;0.00;0.00;;;26.50;99.90;;;;;;5009915;28;20121;-72
2023/07/20 08:52:58;;;;;;;0.00;0.00;;;25.70;99.90;;;;;;5009543;28;20050;-72
2023/07/20 08:55:25;;;;;;;0.13;0.10;;;26.80;99.90;;;;;;5010233;28;20576;-72
2023/07/20 08:57:54;;;;;;;0.80;0.60;;;27.70;99.90;;;;;;5009915;28;20493;-72
2023/07/20 09:00:21;;;;;;;0.00;0.00;;;26.60;99.90;;;;;;5009926;28;20045;-72
2023/07/20 09:02:50;;;;;;;0.17;0.10;;;25.50;99.90;;;;;;5009598;28;20046;-72
2023/07/20 09:05:16;;;;;;;0.00;0.00;;;23.70;99.90;;;;;;5009774;28;20037;-71
2023/07/20 09:07:41;;;;;;;0.20;0.10;;;22.50;99.90;;;;;;5009784;28;20092;-72
2023/07/20 09:10:07;;;;;;;0.00;0.00;;;21.60;99.90;;;;;;5009257;28;20111;-72
2023/07/20 09:12:40;;;;;;;0.00;0.00;;;21.40;99.90;;;;;;5009646;28;20041;-72
2023/07/20 09:15:07;;;;;;;0.20;0.20;;;22.40;99.90;;;;;;5009206;28;20054;-72
2023/07/20 09:17:33;;;;;;;0.00;0.00;;;24.30;99.90;;;;;;5008524;28;20042;-72
2023/07/20 09:19:59;;;;;;;0.52;0.35;;;25.70;99.90;;;;;;5007018;28;20096;-73
2023/07/20 09:22:31;;;;;;;0.00;0.00;;;27.00;99.90;;;;;;5009084;28;20041;-73
2023/07/20 09:24:57;;;;;;;0.08;0.08;;;27.80;99.90;;;;;;5009443;28;20042;-74
2023/07/20 09:27:36;;;;;;;0.20;0.17;;;28.20;99.90;;;;;;5009278;28;20045;-72
2023/07/20 09:30:01;;;;;;;0.20;0.20;;;29.00;99.90;;;;;;5009307;28;20056;-72
2023/07/20 09:32:27;;;;;;;0.00;0.00;;;28.70;99.90;;;;;;5009000;28;20057;-72
2023/07/20 09:34:53;;;;;;;0.03;0.03;;;29.70;99.90;;;;;;5009305;28;20125;-73
2023/07/20 09:37:22;;;;;;;0.10;0.10;;;30.60;99.90;;;;;;5009356;28;20045;-72
2023/07/20 09:39:49;;;;;;;0.00;0.00;;;31.00;99.90;;;;;;5009221;28;20101;-73
2023/07/20 09:42:15;;;;;;;0.00;0.00;;;30.30;99.90;;;;;;5009349;28;20050;-73
2023/07/20 09:44:44;;;;;;;0.65;0.57;;;28.60;99.90;;;;;;5008876;28;20049;-73
2023/07/20 09:47:10;;;;;;;0.00;0.00;;;26.40;99.90;;;;;;5009048;28;20472;-72
2023/07/20 09:49:41;;;;;;;1.45;0.55;;;25.00;99.90;;;;;;5007664;28;20087;-72
2023/07/20 09:52:11;;;;;;;0.00;0.00;;;24.30;99.90;;;;;;5023925;28;20052;-73
2023/07/20 09:54:40;;;;;;;0.10;0.10;;;25.30;99.90;;;;;;5008636;28;20037;-73
2023/07/20 09:57:11;;;;;;;0.00;0.00;;;25.70;99.90;;;;;;5008865;28;20041;-73
2023/07/20 09:59:37;;;;;;;0.00;0.00;;;25.40;99.90;;;;;;5008027;28;20038;-73
2023/07/20 10:02:20;;;;;;;2.17;0.52;;;25.10;99.90;;;;;;5008835;28;20042;-73
2023/07/20 10:04:46;;;;;;;0.13;0.10;;;25.00;99.90;;;;;;5008869;28;20046;-73
2023/07/20 10:07:13;;;;;;;0.47;0.10;;;25.70;99.90;;;;;;5009000;28;20254;-72
2023/07/20 10:09:40;;;;;;;0.60;0.40;;;26.20;99.90;;;;;;5008442;28;20048;-72
2023/07/20 10:12:08;;;;;;;1.67;0.68;;;26.00;99.90;;;;;;5008641;28;20042;-71
2023/07/20 10:14:40;;;;;;;0.10;0.10;;;24.70;99.90;;;;;;5008191;28;20038;-72
2023/07/20 10:17:07;;;;;;;0.00;0.00;;;24.20;99.90;;;;;;5008822;28;20050;-72
2023/07/20 10:19:49;;;;;;;0.10;0.08;;;24.20;99.90;;;;;;5008674;28;20113;-72
2023/07/20 10:22:25;;;;;;;0.00;0.00;;;23.60;99.90;;;;;;5008525;28;20058;-72
2023/07/20 10:24:53;;;;;;;0.00;0.00;;;23.80;99.90;;;;;;5008447;28;20416;-72
2023/07/20 10:27:20;;;;;;;0.00;0.00;;;24.10;99.90;;;;;;5008328;28;20481;-72
2023/07/20 10:29:47;;;;;;;1.95;0.60;;;24.80;99.90;;;;;;5008748;28;20054;-71
2023/07/20 10:32:13;;;;;;;0.00;0.00;;;25.30;99.90;;;;;;5008491;28;20050;-71
2023/07/20 10:34:39;;;;;;;0.00;0.00;;;25.10;99.90;;;;;;5008142;28;20042;-72
2023/07/20 10:37:05;;;;;;;0.32;0.10;;;25.40;99.90;;;;;;5008538;28;20042;-72
2023/07/20 10:39:34;;;;;;;0.03;0.03;;;25.80;99.90;;;;;;5007779;28;20046;-72
2023/07/20 10:42:10;;;;;;;0.15;0.10;;;26.20;99.90;;;;;;5008751;28;20049;-72
2023/07/20 10:44:40;;;;;;;0.00;0.00;;;26.30;99.90;;;;;;5008454;28;20132;-72
2023/07/20 10:47:10;;;;;;;0.20;0.10;;;25.90;99.90;;;;;;5008319;28;20089;-72
2023/07/20 10:50:00;;;;;;;1.88;0.40;;;25.90;99.90;;;;;;5008202;28;20092;-72
2023/07/20 10:52:25;;;;;;;0.88;0.50;;;26.10;99.90;;;;;;5005234;28;20048;-72
2023/07/20 10:54:51;;;;;;;0.00;0.00;;;26.10;99.90;;;;;;5008959;28;20046;-72
2023/07/20 10:57:31;;;;;;;0.00;0.00;;;25.50;99.90;;;;;;5012084;28;20037;-72
2023/07/20 11:00:12;;;;;;;14.98;0.75;;;25.90;99.90;;;;;;5011750;28;20128;-72
2023/07/20 11:02:47;;;;;;;0.00;0.00;;;25.60;99.90;;;;;;5012432;28;20049;-71
2023/07/20 11:05:32;;;;;;;13.90;0.80;;;25.20;99.90;;;;;;5004554;28;20437;-72
2023/07/20 11:07:57;;;;;;;0.00;0.00;;;24.80;99.90;;;;;;5011624;28;20121;-72
2023/07/20 11:10:23;;;;;;;0.00;0.00;;;24.60;99.90;;;;;;5011909;28;20501;-72
2023/07/20 11:13:18;;;;;;;0.30;0.30;;;24.50;99.90;;;;;;5015642;28;20042;-71
2023/07/20 11:15:56;;;;;;;0.10;0.10;;;24.10;99.90;;;;;;5011275;28;20038;-72
2023/07/20 11:18:25;;;;;;;3.85;1.20;;;23.70;99.90;;;;;;5008110;28;20050;-72
2023/07/20 11:20:52;;;;;;;0.22;0.10;;;23.60;99.90;;;;;;5015690;28;20077;-71
2023/07/20 11:23:20;;;;;;;0.40;0.30;;;23.60;99.90;;;;;;5015495;28;20117;-72
2023/07/20 11:25:45;;;;;;;0.00;0.00;;;23.60;99.90;;;;;;5015740;28;20050;-72
2023/07/20 11:28:11;;;;;;;0.00;0.00;;;23.70;99.90;;;;;;5015418;28;20518;-72
2023/07/20 11:30:40;;;;;;;0.00;0.00;;;24.00;99.90;;;;;;5015600;28;20037;-72
2023/07/20 11:33:08;;;;;;;0.00;0.00;;;24.80;99.90;;;;;;5015704;28;20048;-72
2023/07/20 11:35:45;;;;;;;0.30;0.25;;;25.70;99.90;;;;;;5015557;28;20073;-72
2023/07/20 11:38:12;;;;;;;7.25;0.70;;;26.20;99.90;;;;;;5015652;28;20072;-72
2023/07/20 11:40:45;;;;;;;2.78;0.25;;;26.60;99.90;;;;;;5015288;28;20058;-72
2023/07/20 11:43:12;;;;;;;0.57;0.43;;;26.50;99.90;;;;;;5015657;28;20049;-71
2023/07/20 11:45:39;;;;;;;0.13;0.13;;;26.00;99.90;;;;;;5015377;28;20112;-72
2023/07/20 11:48:05;;;;;;;0.00;0.00;;;25.80;99.90;;;;;;5015341;28;20046;-72
2023/07/20 11:50:30;;;;;;;0.32;0.22;;;25.40;99.90;;;;;;5015380;28;20539;-72
2023/07/20 11:52:57;;;;;;;0.00;0.00;;;24.90;99.90;;;;;;5015163;28;20081;-72
2023/07/20 11:55:23;;;;;;;0.00;0.00;;;24.50;99.90;;;;;;5015294;28;20440;-72
2023/07/20 11:58:02;;;;;;;0.03;0.00;;;23.90;99.90;;;;;;5015044;28;20045;-72
2023/07/20 12:00:27;;;;;;;0.00;0.00;;;23.60;99.90;;;;;;5015044;28;20042;-72
2023/07/20 12:02:53;;;;;;;0.00;0.00;;;23.70;99.90;;;;;;5015220;28;20468;-72
2023/07/20 12:05:22;;;;;;;0.00;0.00;;;23.70;99.90;;;;;;5015175;28;20077;-72
2023/07/20 12:07:49;;;;;;;0.00;0.00;;;24.20;99.90;;;;;;5015122;28;20058;-72
2023/07/20 12:10:15;;;;;;;0.40;0.17;;;26.10;99.90;;;;;;5014808;28;20092;-72
2023/07/20 12:12:43;;;;;;;0.00;0.00;;;27.60;99.90;;;;;;5014923;28;20038;-72
2023/07/20 12:15:19;;;;;;;0.00;0.00;;;28.80;99.90;;;;;;5014623;28;20440;-72
2023/07/20 12:17:46;;;;;;;0.10;0.10;;;28.50;99.90;;;;;;5015458;28;20370;-72
2023/07/20 12:20:12;;;;;;;0.00;0.00;;;27.70;99.90;;;;;;5014703;28;20049;-72
2023/07/20 12:22:43;;;;;;;0.20;0.10;;;26.80;99.90;;;;;;5014051;28;20108;-72
2023/07/20 12:25:09;;;;;;;0.10;0.10;;;25.90;99.90;;;;;;5014618;28;20516;-72
2023/07/20 12:27:38;;;;;;;0.10;0.05;;;25.00;99.90;;;;;;5014594;28;20397;-72
2023/07/20 12:30:06;;;;;;;0.38;0.20;;;24.60;99.90;;;;;;5014507;28;20038;-72
2023/07/20 12:32:31;;;;;;;0.57;0.50;;;24.10;99.90;;;;;;5014304;28;20038;-72
2023/07/20 12:34:57;;;;;;;0.00;0.00;;;23.70;99.90;;;;;;5014528;28;20357;-72
2023/07/20 12:37:23;;;;;;;0.30;0.20;;;23.50;99.90;;;;;;5014524;28;20041;-72
2023/07/20 12:39:49;;;;;;;0.00;0.00;;;21.60;99.90;;;;;;5014201;28;20116;-72
2023/07/20 12:42:17;;;;;;;0.00;0.00;;;20.80;1.00;;;;;;5014303;28;20046;-72
2023/07/20 12:44:43;;;;;;;0.00;0.00;;;21.10;2.20;;;;;;5014371;28;20046;-72
2023/07/20 12:47:08;;;;;;;0.17;0.13;;;21.30;1.00;;;;;;5014452;28;20038;-71
2023/07/20 12:49:34;;;;;;;0.00;0.00;;;21.10;31.50;;;;;;5014257;28;20037;-71